Time;durP1;ratioP1;P1;durP2;ratioP2;P2;SDS_P1;SDS_P2;PMS_P1;PMS_P2;Temp;Humidity;BMP_temperature;BMP_pressure;BME280_temperature;BME280_humidity;BME280_pressure;Samples;Min_cycle;Max_cycle;Signal;HPM_P1;HPM_P2
2022/11/02 00:01:14;;;;;;;11.03;6.53;;;7.90;50.20;;;;;;5015751;28;20444;-51
2022/11/02 00:03:41;;;;;;;9.87;6.57;;;7.90;51.40;;;;;;5036313;28;20469;-51
2022/11/02 00:06:07;;;;;;;8.73;6.00;;;7.90;50.60;;;;;;5031111;28;21165;-51
2022/11/02 00:08:34;;;;;;;10.90;5.90;;;7.90;50.40;;;;;;5032797;28;20462;-52
2022/11/02 00:11:01;;;;;;;14.20;6.67;;;7.90;50.60;;;;;;5032697;28;20514;-50
2022/11/02 00:13:29;;;;;;;18.53;6.60;;;7.90;51.00;;;;;;5038071;28;20463;-52
2022/11/02 00:15:55;;;;;;;9.03;6.57;;;7.90;49.70;;;;;;5037202;28;20724;-51
2022/11/02 00:18:22;;;;;;;8.10;6.40;;;7.90;48.90;;;;;;5033270;28;20466;-52
2022/11/02 00:20:49;;;;;;;8.47;6.50;;;7.90;50.00;;;;;;5037535;28;20512;-50
2022/11/02 00:23:16;;;;;;;11.17;6.70;;;7.90;50.20;;;;;;5031957;28;20521;-52
2022/11/02 00:25:46;;;;;;;9.07;6.73;;;7.90;50.40;;;;;;5035505;28;20483;-52
2022/11/02 00:28:13;;;;;;;8.37;6.90;;;7.90;49.40;;;;;;5029198;28;20462;-52
2022/11/02 00:30:42;;;;;;;11.87;7.37;;;7.90;49.40;;;;;;5033817;28;20508;-52
2022/11/02 00:33:08;;;;;;;9.20;7.33;;;7.90;49.40;;;;;;5032318;28;20513;-51
2022/11/02 00:35:36;;;;;;;9.63;6.27;;;7.80;48.70;;;;;;5031701;28;20493;-51
2022/11/02 00:38:02;;;;;;;9.40;7.60;;;7.80;48.90;;;;;;5030513;28;20521;-52
2022/11/02 00:40:29;;;;;;;8.83;7.23;;;7.70;49.50;;;;;;5032943;28;20879;-52
2022/11/02 00:42:56;;;;;;;11.27;8.93;;;7.70;49.20;;;;;;5033593;28;20513;-52
2022/11/02 00:45:23;;;;;;;13.27;8.07;;;7.70;50.10;;;;;;5029754;28;20592;-52
2022/11/02 00:47:51;;;;;;;12.00;7.70;;;7.80;52.80;;;;;;5032187;28;20497;-52
2022/11/02 00:50:17;;;;;;;8.70;7.60;;;7.70;51.90;;;;;;5038878;28;20466;-52
2022/11/02 00:52:44;;;;;;;9.87;6.20;;;7.80;51.10;;;;;;5035483;28;20489;-52
2022/11/02 00:55:11;;;;;;;13.63;6.40;;;7.70;49.90;;;;;;5031348;28;20463;-52
2022/11/02 00:57:39;;;;;;;13.03;6.93;;;7.60;49.80;;;;;;5032113;28;20478;-52
2022/11/02 01:00:07;;;;;;;7.40;5.83;;;7.60;50.40;;;;;;5030359;28;21043;-52
2022/11/02 01:02:34;;;;;;;7.50;6.70;;;7.60;50.20;;;;;;5030575;28;20520;-52
2022/11/02 01:05:02;;;;;;;7.20;6.33;;;7.60;50.30;;;;;;5031534;28;20830;-52
2022/11/02 01:07:29;;;;;;;10.97;7.30;;;7.50;49.90;;;;;;5036483;28;20489;-52
2022/11/02 01:09:55;;;;;;;7.33;6.63;;;7.50;49.80;;;;;;5030677;28;20533;-52
2022/11/02 01:12:22;;;;;;;24.27;8.30;;;7.50;50.50;;;;;;5029260;28;20478;-52
2022/11/02 01:14:49;;;;;;;6.67;6.07;;;7.40;51.40;;;;;;5031379;28;20834;-52
2022/11/02 01:17:17;;;;;;;7.10;6.00;;;7.50;51.90;;;;;;5031558;28;20491;-52
2022/11/02 01:19:44;;;;;;;7.93;5.93;;;7.50;53.00;;;;;;5034927;28;20870;-52
2022/11/02 01:22:11;;;;;;;8.50;6.37;;;7.50;52.00;;;;;;5029417;28;20458;-52
2022/11/02 01:24:38;;;;;;;6.63;6.03;;;7.50;52.00;;;;;;5029508;28;20462;-52
2022/11/02 01:27:05;;;;;;;6.07;4.97;;;7.50;52.30;;;;;;5029458;28;20613;-52
2022/11/02 01:29:31;;;;;;;6.57;6.00;;;7.60;55.30;;;;;;5028209;28;20459;-52
2022/11/02 01:31:58;;;;;;;17.93;6.90;;;7.70;57.50;;;;;;5030440;28;20540;-51
2022/11/02 01:34:24;;;;;;;6.13;5.23;;;7.70;54.20;;;;;;5030265;28;20459;-53
2022/11/02 01:36:51;;;;;;;7.73;6.00;;;7.70;52.30;;;;;;5033795;28;20555;-51
2022/11/02 01:39:19;;;;;;;13.70;6.40;;;7.70;50.90;;;;;;5029310;28;20462;-51
2022/11/02 01:41:50;;;;;;;9.63;7.03;;;7.70;48.20;;;;;;5027551;28;20817;-50
2022/11/02 01:44:28;;;;;;;7.63;6.07;;;7.80;47.90;;;;;;5032705;28;20927;-51
2022/11/02 01:47:00;;;;;;;7.80;5.80;;;7.80;45.50;;;;;;5031629;28;20576;-51
2022/11/02 01:49:27;;;;;;;7.57;5.67;;;7.70;44.00;;;;;;5028582;28;20462;-51
2022/11/02 01:51:59;;;;;;;9.53;5.10;;;7.70;43.70;;;;;;5030161;28;20534;-52
2022/11/02 01:54:30;;;;;;;5.03;4.50;;;7.70;42.00;;;;;;5030027;28;20983;-52
2022/11/02 01:57:03;;;;;;;10.10;5.20;;;7.70;42.10;;;;;;5031035;28;20897;-52
2022/11/02 01:59:33;;;;;;;5.87;5.03;;;7.70;41.00;;;;;;5028184;28;20455;-51
2022/11/02 02:02:00;;;;;;;8.73;5.13;;;7.70;40.70;;;;;;5029646;28;20520;-52
2022/11/02 02:04:27;;;;;;;6.60;5.33;;;7.60;40.30;;;;;;5029594;28;20463;-51
2022/11/02 02:06:58;;;;;;;4.53;4.00;;;7.60;40.00;;;;;;5030579;28;20490;-51
2022/11/02 02:09:25;;;;;;;7.03;5.37;;;7.50;39.50;;;;;;5026475;28;20521;-51
2022/11/02 02:11:53;;;;;;;5.60;5.10;;;7.50;39.20;;;;;;5027930;28;20533;-52
2022/11/02 02:14:20;;;;;;;6.63;5.30;;;7.50;39.30;;;;;;5027067;28;20875;-51
2022/11/02 02:17:01;;;;;;;8.70;5.20;;;7.50;38.90;;;;;;5030297;28;20482;-50
2022/11/02 02:19:35;;;;;;;8.60;5.70;;;7.50;38.70;;;;;;5030732;28;20466;-51
2022/11/02 02:22:32;;;;;;;4.67;4.20;;;7.40;38.70;;;;;;5027924;28;20516;-50
2022/11/02 02:25:12;;;;;;;11.93;4.70;;;7.40;38.40;;;;;;5035627;28;20849;-51
2022/11/02 02:27:55;;;;;;;5.97;3.93;;;7.40;38.70;;;;;;5030777;28;20532;-51
2022/11/02 02:30:22;;;;;;;7.53;4.50;;;7.40;38.60;;;;;;5027807;28;20458;-50
2022/11/02 02:32:53;;;;;;;10.70;4.60;;;7.40;39.10;;;;;;5027224;28;21008;-51
2022/11/02 02:35:26;;;;;;;5.90;4.47;;;7.40;38.10;;;;;;5029760;28;20490;-51
2022/11/02 02:37:57;;;;;;;8.70;5.50;;;7.50;38.60;;;;;;5030114;28;20490;-51
2022/11/02 02:40:29;;;;;;;7.17;5.17;;;7.50;36.50;;;;;;5030039;28;20517;-51
2022/11/02 02:43:04;;;;;;;4.77;4.33;;;7.50;36.30;;;;;;5028545;28;20730;-51
2022/11/02 02:45:37;;;;;;;5.10;4.60;;;7.50;35.20;;;;;;5028479;28;21038;-51
2022/11/02 02:48:09;;;;;;;6.90;4.60;;;7.50;35.00;;;;;;5035811;28;20968;-51
2022/11/02 02:50:40;;;;;;;12.30;4.60;;;7.40;34.30;;;;;;5028764;28;20525;-51
2022/11/02 02:53:08;;;;;;;7.60;4.10;;;7.40;34.10;;;;;;5030500;28;21097;-51
2022/11/02 02:55:40;;;;;;;4.43;4.03;;;7.50;33.90;;;;;;5031081;28;20494;-52
2022/11/02 02:58:13;;;;;;;10.10;3.80;;;7.60;32.00;;;;;;5028392;28;20502;-52
2022/11/02 03:00:40;;;;;;;4.37;3.97;;;7.70;29.60;;;;;;5026394;28;20498;-52
2022/11/02 03:03:15;;;;;;;4.73;3.83;;;7.70;26.80;;;;;;5036822;28;20487;-51
2022/11/02 03:05:42;;;;;;;3.47;3.17;;;7.70;26.10;;;;;;5029221;28;20510;-50
2022/11/02 03:08:12;;;;;;;6.70;4.10;;;7.70;25.20;;;;;;5029704;28;20486;-51
2022/11/02 03:10:46;;;;;;;6.33;3.70;;;7.80;24.80;;;;;;5036679;28;20493;-52
2022/11/02 03:13:34;;;;;;;4.40;4.00;;;7.90;21.00;;;;;;5026632;28;20514;-51
2022/11/02 03:16:07;;;;;;;3.17;2.97;;;7.90;81.70;;;;;;5027496;28;20664;-52
2022/11/02 03:18:43;;;;;;;3.70;2.70;;;8.00;96.10;;;;;;5031312;28;20524;-52
2022/11/02 03:21:21;;;;;;;3.53;3.20;;;8.00;99.90;;;;;;5031595;28;21327;-50
2022/11/02 03:23:52;;;;;;;5.90;3.50;;;8.00;99.90;;;;;;5031920;28;20486;-51
2022/11/02 03:26:24;;;;;;;3.60;3.20;;;8.00;99.90;;;;;;5031487;28;20505;-51
2022/11/02 03:29:00;;;;;;;3.43;3.20;;;8.00;99.90;;;;;;5031603;28;20543;-51
2022/11/02 03:31:36;;;;;;;4.37;3.53;;;8.00;99.90;;;;;;5032479;28;21045;-51
2022/11/02 03:34:09;;;;;;;11.73;3.00;;;8.00;99.90;;;;;;5033713;28;20490;-51
2022/11/02 03:36:41;;;;;;;5.13;3.40;;;8.00;99.90;;;;;;5037200;28;20483;-51
2022/11/02 03:39:10;;;;;;;10.23;3.57;;;7.90;99.90;;;;;;5028068;28;20499;-51
2022/11/02 03:41:39;;;;;;;8.80;2.80;;;7.80;99.90;;;;;;5032561;28;20584;-52
2022/11/02 03:44:10;;;;;;;3.60;2.60;;;7.80;99.90;;;;;;5026390;28;20893;-52
2022/11/02 03:46:40;;;;;;;4.83;3.27;;;7.80;99.90;;;;;;5032039;28;20514;-51
2022/11/02 03:49:10;;;;;;;4.20;3.07;;;7.70;99.90;;;;;;5033903;28;20479;-51
2022/11/02 03:51:40;;;;;;;7.30;3.70;;;7.70;99.90;;;;;;5036461;28;20493;-50
2022/11/02 03:54:12;;;;;;;3.10;2.80;;;7.70;99.90;;;;;;5031640;28;20956;-51
2022/11/02 03:56:41;;;;;;;3.13;2.83;;;7.60;99.90;;;;;;5035156;28;20505;-50
2022/11/02 03:59:09;;;;;;;4.83;3.33;;;7.60;99.90;;;;;;5030107;28;20498;-51
2022/11/02 04:01:40;;;;;;;3.40;3.10;;;7.60;99.90;;;;;;5034588;28;20481;-52
2022/11/02 04:04:06;;;;;;;3.90;2.80;;;7.60;99.90;;;;;;5030518;28;20483;-51
2022/11/02 04:06:34;;;;;;;9.30;3.03;;;7.60;99.90;;;;;;5034309;28;21081;-54
2022/11/02 04:09:01;;;;;;;13.87;3.20;;;7.70;99.90;;;;;;5034696;28;20482;-52
2022/11/02 04:19:48;;;;;;;4.10;2.60;;;7.80;99.90;;;;;;5040254;28;20593;-52
2022/11/02 04:25:18;;;;;;;7.47;3.30;;;7.90;99.90;;;;;;5040380;28;20524;-52
2022/11/02 04:27:46;;;;;;;5.70;2.60;;;7.90;99.90;;;;;;5027346;28;20561;-53
2022/11/02 04:30:15;;;;;;;3.00;2.60;;;7.90;99.90;;;;;;5037369;28;20458;-53
2022/11/02 04:35:29;;;;;;;6.63;3.00;;;7.90;99.90;;;;;;5029184;28;20561;-54
2022/11/02 04:40:40;;;;;;;2.77;2.57;;;7.90;99.90;;;;;;5030788;28;20975;-52
2022/11/02 04:43:06;;;;;;;8.93;2.70;;;7.80;99.90;;;;;;5027075;28;20840;-52
2022/11/02 04:45:34;;;;;;;3.07;2.20;;;7.80;99.90;;;;;;5031266;28;20459;-52
2022/11/02 04:48:02;;;;;;;6.03;2.60;;;7.80;99.90;;;;;;5029999;28;20494;-53
2022/11/02 04:50:29;;;;;;;4.50;2.27;;;7.90;99.90;;;;;;5032410;28;20529;-53
2022/11/02 04:52:57;;;;;;;10.50;2.70;;;7.90;99.90;;;;;;5033814;28;21055;-53
2022/11/02 04:55:24;;;;;;;8.93;3.13;;;7.80;99.90;;;;;;5031073;28;20467;-53
2022/11/02 04:57:50;;;;;;;4.60;2.80;;;7.80;99.90;;;;;;5029208;28;20964;-54
2022/11/02 05:00:18;;;;;;;6.40;2.93;;;7.80;99.90;;;;;;5030604;28;20494;-52
2022/11/02 05:02:47;;;;;;;5.23;2.60;;;7.80;99.90;;;;;;5031703;28;20443;-54
2022/11/02 05:05:14;;;;;;;5.00;2.30;;;7.70;99.90;;;;;;5024045;28;20814;-52
2022/11/02 05:07:41;;;;;;;3.97;2.37;;;7.70;99.90;;;;;;5030027;28;20999;-52
2022/11/02 05:10:08;;;;;;;3.87;2.40;;;7.70;99.90;;;;;;5031387;28;20462;-52
2022/11/02 05:12:35;;;;;;;4.27;2.40;;;7.70;99.90;;;;;;5032663;28;20582;-54
2022/11/02 05:15:02;;;;;;;6.73;2.40;;;7.70;99.90;;;;;;5031500;28;20467;-53
2022/11/02 05:17:28;;;;;;;3.30;2.50;;;7.70;99.90;;;;;;5032546;28;20564;-53
2022/11/02 05:19:56;;;;;;;5.13;2.73;;;7.70;99.90;;;;;;5031784;28;20454;-53
2022/11/02 05:22:23;;;;;;;3.37;2.23;;;7.70;99.90;;;;;;5029543;28;20987;-53
2022/11/02 05:24:49;;;;;;;5.73;2.57;;;7.70;99.90;;;;;;5029105;28;20996;-52
2022/11/02 05:27:16;;;;;;;6.93;2.77;;;7.70;99.90;;;;;;5032127;28;20975;-52
2022/11/02 05:29:42;;;;;;;4.93;2.30;;;7.70;99.90;;;;;;5030494;28;20933;-51
2022/11/02 05:32:09;;;;;;;5.57;2.23;;;7.70;99.90;;;;;;5031266;28;20972;-51
2022/11/02 05:34:35;;;;;;;2.87;2.20;;;7.70;99.90;;;;;;5030645;28;20984;-51
2022/11/02 05:37:03;;;;;;;4.33;2.63;;;7.60;99.90;;;;;;5031246;28;20486;-52
2022/11/02 05:39:30;;;;;;;5.07;2.53;;;7.70;99.90;;;;;;5031827;28;20494;-52
2022/11/02 05:41:56;;;;;;;4.80;2.93;;;7.70;99.90;;;;;;5030185;28;20640;-53
2022/11/02 05:44:23;;;;;;;3.90;2.70;;;7.70;99.90;;;;;;5029492;28;20466;-53
2022/11/02 05:46:49;;;;;;;9.10;3.40;;;7.70;99.90;;;;;;5034685;28;20537;-53
2022/11/02 05:49:16;;;;;;;7.90;3.50;;;7.70;99.90;;;;;;5028269;28;20545;-52
2022/11/02 05:51:44;;;;;;;3.77;2.67;;;7.70;99.90;;;;;;5032981;28;20473;-54
2022/11/02 05:54:11;;;;;;;5.47;3.10;;;7.70;99.90;;;;;;5028695;28;20486;-52
2022/11/02 05:56:38;;;;;;;3.50;2.27;;;7.70;99.90;;;;;;5026636;28;20514;-52
2022/11/02 05:59:04;;;;;;;5.27;2.47;;;7.80;99.90;;;;;;5030014;28;20494;-52
2022/11/02 06:01:31;;;;;;;3.53;2.47;;;7.80;99.90;;;;;;5033012;28;21060;-53
2022/11/02 06:03:58;;;;;;;5.50;3.27;;;7.80;99.90;;;;;;5027833;28;20459;-53
2022/11/02 06:06:24;;;;;;;5.10;2.90;;;7.90;99.90;;;;;;5031625;28;20642;-54
2022/11/02 06:08:51;;;;;;;6.00;2.50;;;7.90;99.90;;;;;;5030079;28;20516;-52
2022/11/02 06:11:19;;;;;;;13.23;2.93;;;7.90;99.90;;;;;;5029960;28;20558;-53
2022/11/02 06:13:49;;;;;;;12.07;2.80;;;7.90;99.90;;;;;;5027770;28;20517;-53
2022/11/02 06:16:16;;;;;;;5.67;3.23;;;7.90;99.90;;;;;;5029559;28;20482;-53
2022/11/02 06:18:44;;;;;;;9.57;2.67;;;8.00;99.90;;;;;;5028351;28;21015;-52
2022/11/02 06:21:11;;;;;;;7.33;3.17;;;8.00;99.90;;;;;;5029914;28;20459;-53
2022/11/02 06:23:38;;;;;;;5.77;2.63;;;8.00;99.90;;;;;;5045524;28;20493;-53
2022/11/02 06:26:04;;;;;;;6.40;2.80;;;8.00;99.90;;;;;;5031243;28;20585;-52
2022/11/02 06:28:32;;;;;;;3.10;2.70;;;8.00;99.90;;;;;;5029694;28;20498;-52
2022/11/02 06:30:59;;;;;;;8.47;2.37;;;8.00;99.90;;;;;;5025334;28;22439;-52
2022/11/02 06:33:26;;;;;;;8.90;2.53;;;8.00;99.90;;;;;;5029330;28;20556;-52
2022/11/02 06:35:54;;;;;;;5.80;2.20;;;8.00;99.90;;;;;;5028622;28;21012;-52
2022/11/02 06:38:21;;;;;;;5.17;3.23;;;8.00;89.90;;;;;;5031691;28;20979;-52
2022/11/02 06:40:53;;;;;;;8.20;2.10;;;8.10;80.40;;;;;;5031571;28;20490;-54
2022/11/02 06:43:20;;;;;;;5.03;2.53;;;8.10;88.70;;;;;;5025631;28;20513;-52
2022/11/02 06:45:48;;;;;;;7.00;2.50;;;8.20;84.30;;;;;;5030264;28;20478;-52
2022/11/02 06:48:15;;;;;;;6.10;2.70;;;8.30;23.20;;;;;;5028822;28;20454;-52
2022/11/02 06:50:42;;;;;;;14.27;2.90;;;8.30;29.00;;;;;;5037869;28;20503;-52
2022/11/02 06:53:08;;;;;;;7.50;2.83;;;8.40;33.30;;;;;;5034671;28;20486;-54
2022/11/02 06:55:35;;;;;;;10.67;2.63;;;8.40;37.30;;;;;;5025437;28;20473;-54
2022/11/02 06:58:01;;;;;;;9.40;2.10;;;8.40;42.60;;;;;;5032573;28;20502;-52
2022/11/02 07:00:29;;;;;;;6.80;2.87;;;8.50;44.60;;;;;;5021569;28;20495;-54
2022/11/02 07:03:04;;;;;;;5.83;2.50;;;8.50;53.00;;;;;;5029341;28;21167;-52
2022/11/02 07:05:32;;;;;;;10.10;2.70;;;8.70;57.60;;;;;;5034778;28;21040;-53
2022/11/02 07:07:58;;;;;;;5.23;2.57;;;8.90;63.50;;;;;;5039280;28;20516;-51
2022/11/02 07:10:26;;;;;;;9.20;3.30;;;9.30;74.70;;;;;;5035966;28;20462;-54
2022/11/02 07:12:54;;;;;;;12.40;2.70;;;9.50;99.90;;;;;;5030783;28;20597;-51
2022/11/02 07:15:20;;;;;;;7.90;2.60;;;9.70;99.90;;;;;;5037358;28;20462;-52
2022/11/02 07:17:47;;;;;;;6.77;2.33;;;9.90;99.90;;;;;;5040912;28;20493;-53
2022/11/02 07:20:16;;;;;;;9.10;2.67;;;10.40;99.90;;;;;;5040077;28;20486;-52
2022/11/02 07:22:51;;;;;;;7.00;2.80;;;10.90;99.90;;;;;;5031430;28;20521;-52
2022/11/02 07:25:18;;;;;;;9.77;2.77;;;11.20;27.50;;;;;;5025093;28;20501;-52
2022/11/02 07:27:44;;;;;;;11.60;2.67;;;11.70;32.00;;;;;;5027670;28;20524;-52
2022/11/02 07:30:11;;;;;;;10.60;3.13;;;12.10;61.70;;;;;;5031196;28;20501;-52
2022/11/02 07:32:41;;;;;;;8.07;2.77;;;12.20;99.90;;;;;;5029918;28;20495;-51
2022/11/02 07:35:10;;;;;;;12.30;2.80;;;12.40;90.70;;;;;;5029956;28;21008;-52
2022/11/02 07:37:38;;;;;;;9.10;2.93;;;12.10;94.80;;;;;;5031800;28;20517;-52
2022/11/02 07:40:06;;;;;;;6.80;2.50;;;12.10;60.00;;;;;;5031612;28;20975;-51
2022/11/02 07:42:33;;;;;;;16.93;3.83;;;12.00;60.60;;;;;;5034789;28;20538;-51
2022/11/02 07:44:59;;;;;;;15.43;2.70;;;11.70;58.90;;;;;;5035715;28;20493;-52
2022/11/02 07:47:26;;;;;;;8.10;2.37;;;11.40;37.40;;;;;;5033325;28;20482;-51
2022/11/02 07:49:53;;;;;;;7.30;2.20;;;11.20;27.90;;;;;;5028919;28;20463;-52
2022/11/02 07:52:19;;;;;;;3.90;2.40;;;11.30;23.00;;;;;;5030413;28;20486;-51
2022/11/02 07:54:47;;;;;;;8.30;3.17;;;11.40;24.30;;;;;;5033315;28;20572;-51
2022/11/02 07:57:14;;;;;;;16.17;5.10;;;11.20;20.80;;;;;;5028377;28;20483;-51
2022/11/02 07:59:40;;;;;;;8.03;2.50;;;11.10;99.90;;;;;;5026469;28;20491;-50
2022/11/02 08:02:12;;;;;;;3.23;2.30;;;10.90;99.90;;;;;;5030277;28;20490;-51
2022/11/02 08:04:38;;;;;;;13.10;2.60;;;10.80;99.90;;;;;;5024907;28;20465;-50
2022/11/02 08:07:05;;;;;;;6.63;2.27;;;10.80;99.90;;;;;;5025891;28;20514;-51
2022/11/02 08:09:32;;;;;;;5.53;2.30;;;10.80;99.90;;;;;;5032677;28;20486;-50
2022/11/02 08:11:59;;;;;;;13.43;2.90;;;10.70;99.90;;;;;;5038768;28;20840;-50
2022/11/02 08:14:26;;;;;;;5.63;2.33;;;10.70;99.90;;;;;;5029776;28;21094;-51
2022/11/02 08:16:53;;;;;;;7.40;2.67;;;10.70;99.90;;;;;;5031975;28;20538;-51
2022/11/02 08:19:19;;;;;;;15.43;3.10;;;10.80;99.90;;;;;;5029114;28;21001;-51
2022/11/02 08:21:46;;;;;;;11.13;2.50;;;10.90;99.90;;;;;;5028147;28;20548;-51
2022/11/02 08:24:12;;;;;;;6.97;2.47;;;11.20;99.90;;;;;;5024805;28;20540;-51
2022/11/02 08:26:39;;;;;;;10.93;3.40;;;11.30;99.90;;;;;;5027726;28;20479;-50
2022/11/02 08:29:07;;;;;;;15.90;3.30;;;11.20;99.90;;;;;;5031424;28;20483;-51
2022/11/02 08:31:33;;;;;;;7.30;2.13;;;11.10;99.90;;;;;;5030544;28;20545;-50
2022/11/02 08:34:00;;;;;;;3.87;2.50;;;11.00;99.90;;;;;;5028927;28;20530;-50
2022/11/02 08:36:26;;;;;;;11.87;3.00;;;11.00;99.90;;;;;;5030700;28;20545;-51
2022/11/02 08:38:53;;;;;;;8.50;2.80;;;11.00;99.90;;;;;;5035297;28;20490;-50
2022/11/02 08:41:19;;;;;;;9.60;3.10;;;11.00;99.90;;;;;;5030317;28;20491;-52
2022/11/02 08:43:46;;;;;;;4.73;2.70;;;11.00;99.90;;;;;;5032411;28;20446;-51
2022/11/02 08:46:14;;;;;;;18.23;2.60;;;11.10;99.90;;;;;;5026347;28;20829;-51
2022/11/02 08:48:41;;;;;;;6.40;2.30;;;11.30;99.90;;;;;;5028923;28;20964;-50
2022/11/02 08:51:08;;;;;;;13.80;2.67;;;11.90;22.10;;;;;;5026711;28;20459;-51
2022/11/02 08:53:35;;;;;;;11.10;3.87;;;12.80;65.80;;;;;;5026601;28;20517;-50
2022/11/02 08:56:01;;;;;;;7.50;2.70;;;13.50;99.90;;;;;;5030535;28;20565;-51
2022/11/02 08:58:28;;;;;;;16.47;3.77;;;13.60;99.90;;;;;;5033009;28;20540;-50
2022/11/02 09:00:55;;;;;;;10.90;3.40;;;13.80;99.90;;;;;;5037507;28;20919;-50
2022/11/02 09:03:24;;;;;;;8.47;2.80;;;14.20;99.90;;;;;;5030262;28;20490;-51
2022/11/02 09:05:56;;;;;;;8.57;2.87;;;14.10;99.90;;;;;;5031634;28;20481;-51
2022/11/02 09:08:22;;;;;;;7.93;2.00;;;13.50;85.00;;;;;;5033581;28;20870;-51
2022/11/02 09:10:52;;;;;;;10.57;2.50;;;13.00;85.50;;;;;;5036170;28;20492;-51
2022/11/02 09:13:23;;;;;;;10.20;2.17;;;13.00;95.70;;;;;;5030910;28;20454;-51
2022/11/02 09:15:51;;;;;;;6.23;2.67;;;13.20;83.10;;;;;;5030407;28;20486;-51
2022/11/02 09:18:18;;;;;;;9.67;3.47;;;13.80;99.90;;;;;;5030549;28;20470;-51
2022/11/02 09:20:47;;;;;;;10.57;2.67;;;13.70;99.90;;;;;;5031200;28;20516;-51
2022/11/02 09:23:14;;;;;;;6.70;2.40;;;13.40;99.90;;;;;;5024504;28;20455;-51
2022/11/02 09:25:41;;;;;;;8.43;2.47;;;13.60;99.00;;;;;;5027519;28;20514;-51
2022/11/02 09:28:07;;;;;;;8.87;2.50;;;13.50;99.90;;;;;;5028866;28;20494;-51
2022/11/02 09:30:34;;;;;;;13.50;3.37;;;13.90;99.90;;;;;;5030949;28;20458;-50
2022/11/02 09:33:02;;;;;;;6.03;2.73;;;14.50;99.90;;;;;;5033166;28;22277;-51
2022/11/02 09:35:31;;;;;;;5.67;2.30;;;14.10;99.90;;;;;;5028732;28;20915;-50
2022/11/02 09:37:59;;;;;;;7.20;2.80;;;14.40;99.90;;;;;;5032580;28;20487;-51
2022/11/02 09:40:27;;;;;;;5.27;2.40;;;15.60;99.90;;;;;;5027427;28;20495;-51
2022/11/02 09:43:03;;;;;;;8.00;2.80;;;16.60;99.90;;;;;;5027064;28;20462;-51
2022/11/02 09:45:33;;;;;;;13.50;2.90;;;17.10;27.50;;;;;;5031398;28;20480;-51
2022/11/02 09:48:03;;;;;;;14.40;3.23;;;18.40;79.00;;;;;;5026882;28;20491;-52
2022/11/02 09:50:44;;;;;;;7.93;2.07;;;18.90;99.90;;;;;;5027656;28;20490;-51
2022/11/02 09:53:18;;;;;;;5.73;2.40;;;19.70;99.90;;;;;;5028726;28;21068;-51
2022/11/02 09:55:50;;;;;;;11.73;2.57;;;19.70;99.90;;;;;;5034033;28;20575;-51
2022/11/02 09:58:21;;;;;;;4.23;2.47;;;19.60;99.90;;;;;;5028172;28;20544;-51
2022/11/02 10:00:51;;;;;;;7.03;2.20;;;18.50;99.90;;;;;;5034443;28;20922;-51
2022/11/02 10:03:29;;;;;;;6.90;2.00;;;17.70;92.60;;;;;;5037774;28;20447;-50
2022/11/02 10:06:06;;;;;;;14.20;2.43;;;17.00;73.50;;;;;;5041929;28;20491;-53
2022/11/02 10:08:45;;;;;;;4.80;1.80;;;16.10;79.00;;;;;;5038163;28;20534;-51
2022/11/02 10:11:23;;;;;;;7.93;2.07;;;16.00;26.00;;;;;;5032608;28;20831;-51
2022/11/02 10:13:55;;;;;;;11.10;3.17;;;16.50;47.30;;;;;;5029808;28;20489;-52
2022/11/02 10:16:27;;;;;;;7.10;2.10;;;17.30;71.60;;;;;;5031767;28;20996;-51
2022/11/02 10:18:55;;;;;;;10.03;2.97;;;16.80;58.30;;;;;;5029184;28;20442;-52
2022/11/02 10:21:25;;;;;;;4.90;2.20;;;16.40;57.00;;;;;;5029668;28;20504;-51
2022/11/02 10:23:55;;;;;;;8.77;2.33;;;17.40;76.70;;;;;;5031921;28;20443;-51
2022/11/02 10:26:23;;;;;;;7.70;2.60;;;16.80;72.70;;;;;;5035061;28;21252;-51
2022/11/02 10:28:57;;;;;;;11.57;1.80;;;16.60;64.20;;;;;;5035422;28;20831;-51
2022/11/02 10:31:29;;;;;;;9.43;3.00;;;15.90;44.10;;;;;;5029778;28;20560;-51
2022/11/02 10:33:57;;;;;;;6.57;1.93;;;15.80;25.20;;;;;;5033901;28;20439;-51
2022/11/02 10:36:44;;;;;;;7.60;2.50;;;15.40;32.60;;;;;;5034884;28;20554;-51
2022/11/02 10:39:28;;;;;;;8.80;2.17;;;15.70;40.70;;;;;;5040749;28;20458;-54
2022/11/02 10:42:11;;;;;;;14.30;2.67;;;15.90;48.70;;;;;;5037624;28;20820;-53
2022/11/02 10:45:05;;;;;;;6.77;2.00;;;15.80;40.70;;;;;;5039895;28;20458;-53
2022/11/02 10:47:37;;;;;;;14.40;2.57;;;15.90;48.70;;;;;;5017440;28;20565;-53
2022/11/02 10:50:31;;;;;;;10.17;2.47;;;15.40;38.50;;;;;;5041352;28;20964;-52
2022/11/02 10:53:00;;;;;;;9.10;1.97;;;15.50;43.70;;;;;;5034808;28;20952;-53
2022/11/02 10:55:33;;;;;;;13.43;2.30;;;15.40;36.40;;;;;;5034559;28;20473;-53
2022/11/02 10:58:04;;;;;;;7.13;2.10;;;15.30;40.60;;;;;;5034317;28;20544;-52
2022/11/02 11:00:33;;;;;;;4.57;2.00;;;15.50;50.90;;;;;;5038647;28;20482;-53
2022/11/02 11:03:08;;;;;;;7.63;2.20;;;15.60;55.10;;;;;;5035092;28;20446;-53
2022/11/02 11:05:38;;;;;;;12.00;1.97;;;15.70;58.80;;;;;;5037346;28;20482;-52
2022/11/02 11:08:06;;;;;;;9.80;2.67;;;15.90;50.20;;;;;;5046271;28;20983;-53
2022/11/02 11:10:37;;;;;;;4.60;1.97;;;16.60;78.70;;;;;;5040806;28;20467;-53
2022/11/02 11:13:06;;;;;;;9.17;2.00;;;16.90;92.90;;;;;;5031721;28;20458;-53
2022/11/02 11:15:34;;;;;;;12.20;2.83;;;16.40;78.90;;;;;;5034065;28;20478;-53
2022/11/02 11:18:10;;;;;;;7.93;2.37;;;16.10;80.10;;;;;;5035045;28;20443;-53
2022/11/02 11:20:39;;;;;;;6.40;2.10;;;15.70;63.30;;;;;;5034015;28;20485;-52
2022/11/02 11:23:17;;;;;;;11.00;2.83;;;15.60;68.80;;;;;;5031860;28;20552;-53
2022/11/02 11:25:54;;;;;;;6.23;2.13;;;15.20;50.50;;;;;;5035405;28;20481;-54
2022/11/02 11:28:23;;;;;;;10.37;2.53;;;15.10;41.00;;;;;;5028841;28;21008;-53
2022/11/02 11:31:03;;;;;;;8.77;2.37;;;14.80;40.40;;;;;;5037595;28;20457;-54
2022/11/02 11:33:32;;;;;;;4.40;2.00;;;14.70;31.50;;;;;;5041001;28;20446;-53
2022/11/02 11:35:59;;;;;;;6.43;2.30;;;14.50;29.50;;;;;;5040281;28;20485;-53
2022/11/02 11:38:27;;;;;;;12.70;2.80;;;14.70;27.40;;;;;;5033774;28;20459;-53
2022/11/02 11:40:58;;;;;;;9.40;2.70;;;15.00;35.30;;;;;;5033337;28;20498;-53
2022/11/02 11:43:26;;;;;;;5.97;2.17;;;15.20;37.80;;;;;;5028394;28;20945;-54
2022/11/02 11:45:55;;;;;;;5.70;2.00;;;15.20;44.80;;;;;;5031978;28;20478;-54
2022/11/02 11:48:32;;;;;;;10.40;2.20;;;15.10;51.40;;;;;;5041865;28;20976;-53
2022/11/02 11:51:02;;;;;;;5.93;2.00;;;15.10;53.30;;;;;;5036697;28;20489;-53
2022/11/02 11:53:29;;;;;;;8.33;2.13;;;15.20;53.10;;;;;;5034340;28;20461;-53
2022/11/02 11:55:58;;;;;;;8.00;2.23;;;15.20;50.50;;;;;;5033457;28;21039;-53
2022/11/02 11:58:27;;;;;;;7.77;2.33;;;15.10;48.50;;;;;;5038712;28;20458;-53
2022/11/02 12:01:16;;;;;;;6.83;2.40;;;15.30;42.70;;;;;;5033752;28;20451;-53
2022/11/02 12:03:52;;;;;;;8.63;1.80;;;15.40;50.40;;;;;;5039045;28;20462;-53
2022/11/02 12:06:26;;;;;;;8.33;2.73;;;15.30;44.50;;;;;;5039827;28;20486;-52
2022/11/02 12:09:01;;;;;;;5.30;2.23;;;15.20;46.20;;;;;;5030111;28;20632;-53
2022/11/02 12:11:42;;;;;;;4.87;1.80;;;15.20;48.00;;;;;;5042880;28;20490;-53
2022/11/02 12:14:19;;;;;;;12.53;2.23;;;15.30;49.20;;;;;;5032341;28;20502;-53
2022/11/02 12:17:00;;;;;;;6.07;2.00;;;15.20;61.30;;;;;;5038386;28;20568;-54
2022/11/02 12:19:37;;;;;;;7.80;1.90;;;15.00;52.10;;;;;;5027404;28;20949;-53
2022/11/02 12:22:14;;;;;;;11.93;1.77;;;14.90;47.70;;;;;;5038624;28;20485;-53
2022/11/02 12:25:20;;;;;;;6.10;2.17;;;15.00;42.60;;;;;;5031058;28;20482;-52
2022/11/02 12:27:57;;;;;;;17.73;2.50;;;14.90;44.10;;;;;;4972536;28;20585;-53
2022/11/02 12:30:33;;;;;;;6.57;2.03;;;14.80;48.30;;;;;;4974495;28;20934;-52
2022/11/02 12:33:18;;;;;;;9.83;2.57;;;14.80;40.90;;;;;;5009891;28;20991;-53
2022/11/02 12:36:00;;;;;;;7.50;2.27;;;15.20;56.10;;;;;;5031652;28;20514;-53
2022/11/02 12:38:45;;;;;;;4.93;2.97;;;15.60;69.70;;;;;;5037324;28;20494;-54
2022/11/02 12:41:13;;;;;;;8.63;2.10;;;16.00;77.20;;;;;;5033549;28;20477;-54
2022/11/02 12:43:43;;;;;;;7.30;1.80;;;15.70;78.10;;;;;;5032315;28;20470;-53
2022/11/02 12:46:30;;;;;;;5.33;1.90;;;15.70;82.60;;;;;;5032879;28;20503;-54
2022/11/02 12:49:08;;;;;;;3.80;2.03;;;15.50;85.50;;;;;;5032477;28;20470;-53
2022/11/02 12:51:46;;;;;;;4.77;2.13;;;15.90;86.40;;;;;;5029988;28;20450;-53
2022/11/02 12:54:18;;;;;;;8.83;2.17;;;15.90;94.70;;;;;;5033879;28;20518;-54
2022/11/02 12:56:48;;;;;;;2.50;1.53;;;15.90;95.90;;;;;;5036401;28;20970;-54
2022/11/02 12:59:21;;;;;;;8.23;2.60;;;15.80;97.10;;;;;;5024230;28;20466;-54
2022/11/02 13:01:51;;;;;;;7.90;2.77;;;15.80;99.90;;;;;;5032182;28;20491;-54
2022/11/02 13:04:21;;;;;;;12.83;2.60;;;15.70;99.90;;;;;;5025501;28;20458;-52
2022/11/02 13:06:50;;;;;;;2.70;1.30;;;15.60;99.90;;;;;;5036215;28;20544;-52
2022/11/02 13:09:23;;;;;;;4.50;1.97;;;15.60;99.90;;;;;;5036917;28;20462;-53
2022/11/02 13:11:56;;;;;;;9.50;1.70;;;15.60;99.90;;;;;;5031469;28;20487;-53
2022/11/02 13:14:28;;;;;;;8.27;1.93;;;15.60;99.90;;;;;;5032691;28;20468;-53
2022/11/02 13:17:00;;;;;;;6.07;1.90;;;15.40;99.90;;;;;;5032528;28;20482;-53
2022/11/02 13:19:33;;;;;;;4.03;1.80;;;15.10;99.90;;;;;;5037810;28;20470;-53
2022/11/02 13:22:02;;;;;;;10.67;2.10;;;15.00;99.90;;;;;;5037150;28;20511;-53